Flight Track Log - Related Links

Times and Time Zones

All times are in EDT time to prevent confusion due to time zone crossing. See the EJA396 flight status page for this flight to view local times or setup timezone preferences in your user account.

Time Position Orientation Groundspeed Altitude Reporting Facility
EDT Latitude Longitude Course Direction KTS MPH feet Rate Location/Type
Fri 10:16:20 AM 39.6392 -106.9372 98° East 185 213 7,400  Level Denver Center
Fri 10:17:22 AM 39.5997 -106.9847 223° Southwest 199 229 11,100 3,415 Climbing Denver Center
Fri 10:18:23 AM 39.6231 -107.0375 300° West 217 250 14,400 1,805 Climbing Denver Center
Fri 10:19:25 AM 39.7031 -107.0617 347° North 296 341 14,800 919 Climbing Denver Center
Fri 10:20:00 AM 39.9833 -106.1964 90° East  Level FlightAware Approximate
Fri 10:20:27 AM 39.7833 -107.0322 16° North 331 381 16,300  Level Denver Center
Fri 10:21:00 AM 39.9728 -106.0380 98° East  Level FlightAware Approximate
Fri 10:21:29 AM 39.8283 -106.9175 63° Northeast 356 410 18,200  Level Denver Center
Fri 10:22:44 AM 39.8761 -106.7897 64° Northeast 387 445 20,000 1,839 Climbing Denver Center
Fri 10:23:46 AM 39.9142 -106.6158 74° East 418 481 22,400 1,463 Climbing Denver Center
Fri 10:24:47 AM 39.9247 -106.4689 85° East 433 498 23,000 774 Climbing Denver Center
Fri 10:25:50 AM 39.9400 -106.2736 84° East 450 518 24,000 1,440 Climbing Denver Center
Fri 10:26:52 AM 39.9522 -106.1131 84° East 448 516 26,000 1,742 Climbing Denver Center
Fri 10:27:54 AM 39.9619 -105.9481 86° East 455 524 27,600 1,500 Climbing Denver Center
Fri 10:28:56 AM 39.9733 -105.7756 85° East 483 556 29,100 1,452 Climbing Denver Center
Fri 10:29:58 AM 39.9850 -105.6036 85° East 478 550 30,600 1,597 Climbing Denver Center
Fri 10:31:00 AM 39.9978 -105.3956 85° East 472 543 32,400 1,597 Climbing Denver Center
Fri 10:32:02 AM 40.0089 -105.2211 85° East 480 552 33,900 1,452 Climbing Denver Center
Fri 10:33:04 AM 40.0197 -105.0450 85° East 483 556 35,400 1,258 Climbing Denver Center
Fri 10:34:06 AM 40.0306 -104.8683 85° East 484 557 36,500 1,016 Climbing Denver Center
Fri 10:35:08 AM 40.0419 -104.6878 85° East 496 571 37,500 968 Climbing Denver Center
Fri 10:36:10 AM 40.0508 -104.5092 86° East 492 566 38,500 968 Climbing Denver Center
Fri 10:37:12 AM 40.0600 -104.3303 86° East 492 566 39,500 1,065 Climbing Denver Center
Fri 10:38:14 AM 40.0706 -104.1222 86° East 474 545 40,700 726 Climbing Denver Center
Fri 10:39:16 AM 40.0792 -103.9469 86° East 483 556 41,000 144 Climbing Denver Center
Fri 10:40:19 AM 40.0883 -103.7717 86° East 482 555 41,000  Level Denver Center
Fri 10:41:21 AM 40.0986 -103.6011 85° East 471 542 41,000  Level Denver Center
Fri 10:42:23 AM 40.1056 -103.4219 87° East 490 564 41,000  Level Denver Center
Fri 10:43:25 AM 40.1144 -103.2450 86° East 491 565 41,000  Level Denver Center
Fri 10:44:27 AM 40.1214 -103.0686 87° East 488 562 41,000  Level Denver Center
Fri 10:45:29 AM 40.1289 -102.8561 87° East 488 562 41,000  Level Denver Center
Fri 10:46:31 AM 40.1353 -102.6778 87° East 491 565 41,000  Level Denver Center
Fri 10:47:33 AM 40.1419 -102.4889 87° East 489 563 41,000  Level Denver Center
Fri 10:48:35 AM 40.1472 -102.3186 88° East 490 564 41,000  Level Denver Center
Fri 10:49:37 AM 40.1522 -102.1208 88° East 489 563 41,000  Level Denver Center
Fri 10:50:39 AM 40.1569 -101.9514 88° East 489 563 41,000  Level Denver Center
Fri 10:51:41 AM 40.1631 -101.7547 88° East 486 559 41,000  Level Denver Center
Fri 10:52:43 AM 40.1669 -101.5850 88° East 490 564 41,000  Level Denver Center
Fri 10:53:45 AM 40.1711 -101.3864 88° East 491 565 41,000  Level Denver Center
Fri 10:54:47 AM 40.1756 -101.2181 88° East 489 563 41,000  Level Denver Center
Fri 10:55:50 AM 40.1792 -101.0197 89° East 491 565 41,000  Level Denver Center
Fri 10:56:52 AM 40.1817 -100.8494 89° East 491 565 41,000  Level Denver Center
Fri 10:58:00 AM 40.1848 -100.6693 89° East  Level FlightAware Approximate
Fri 10:58:58 AM 40.1878 -100.4839 89° East 489 563 41,000  Level Denver Center
Fri 11:00:00 AM 40.1906 -100.2864 89° East 491 565 41,000  Level Denver Center
Fri 11:01:02 AM 40.1919 -100.1178 89° East 488 562 41,000  Level Denver Center
Fri 11:02:04 AM 40.1939 -99.9214 89° East 486 559 41,000  Level Denver Center
Fri 11:03:06 AM 40.1953 -99.7322 89° East 486 559 41,000  Level Denver Center
Fri 11:04:08 AM 40.1978 -99.5547 89° East 489 563 41,000  Level Denver Center
Fri 11:05:10 AM 40.1983 -99.3861 90° East 487 560 41,000  Level Denver Center
Fri 11:06:24 AM 40.1994 -99.1894 90° East 487 560 41,000  Level Denver Center
Fri 11:07:12 AM 40.1994 -99.0286 90° East 486 559 41,000  Level Minneapolis Center
Fri 11:08:14 AM 40.1994 -98.8517 90° East 488 562 41,000  Level Minneapolis Center
Fri 11:09:16 AM 40.1997 -98.6394 90° East 488 562 41,000  Level Minneapolis Center
Fri 11:10:18 AM 40.1986 -98.4628 90° East 488 562 41,000  Level Minneapolis Center
Fri 11:11:21 AM 40.1972 -98.2847 91° East 491 565 41,000  Level Minneapolis Center
Fri 11:12:23 AM 40.1978 -98.1081 90° East 489 563 41,000  Level Minneapolis Center
Fri 11:13:25 AM 40.1958 -97.9308 91° East 489 563 41,000  Level Minneapolis Center
Fri 11:14:27 AM 40.1947 -97.7536 90° East 489 563 41,000  Level Minneapolis Center
Fri 11:15:29 AM 40.1919 -97.5408 91° East 489 563 41,000  Level Minneapolis Center
Fri 11:16:31 AM 40.1900 -97.3642 91° East 487 560 41,000  Level Minneapolis Center
Fri 11:17:33 AM 40.1883 -97.2031 91° East 491 565 41,000  Level Minneapolis Center
Fri 11:18:35 AM 40.1853 -96.9903 91° East 491 565 41,000  Level Minneapolis Center
Fri 11:19:37 AM 40.1819 -96.8122 91° East 492 566 41,000  Level Minneapolis Center
Fri 11:20:39 AM 40.1786 -96.6356 91° East 489 563 41,000  Level Minneapolis Center
Fri 11:21:41 AM 40.1750 -96.4569 91° East 491 565 41,000  Level Minneapolis Center
Fri 11:22:43 AM 40.1714 -96.2797 91° East 492 566 41,000  Level Minneapolis Center
Fri 11:23:45 AM 40.1664 -96.0644 92° East 494 568 41,000  Level Minneapolis Center
Fri 11:24:47 AM 40.1628 -95.8847 91° East 496 571 41,000  Level Minneapolis Center
Fri 11:25:49 AM 40.1586 -95.7044 92° East 497 572 41,000  Level Minneapolis Center
Fri 11:26:52 AM 40.1544 -95.5272 92° East 494 568 41,000  Level Minneapolis Center
Fri 11:27:54 AM 40.1486 -95.3483 92° East 494 568 41,000  Level Minneapolis Center
Fri 11:28:56 AM 40.1428 -95.1694 92° East 494 568 41,000  Level Minneapolis Center
Fri 11:29:57 AM 40.1372 -94.9739 92° East 496 571 41,000  Level Kansas City Center
Fri 11:31:00 AM 40.1303 -94.7722 93° East 496 571 41,000  Level Kansas City Center
Fri 11:32:02 AM 40.1236 -94.5992 93° East 496 571 41,000  Level Kansas City Center
Fri 11:33:04 AM 40.1161 -94.3967 93° East 499 574 41,000  Level Kansas City Center
Fri 11:34:06 AM 40.1092 -94.2236 93° East 497 572 41,000  Level Kansas City Center
Fri 11:35:08 AM 40.1014 -94.0583 93° East 496 571 41,000  Level Kansas City Center
Fri 11:36:10 AM 40.0917 -93.8433 93° East 499 574 41,000  Level Kansas City Center
Fri 11:37:12 AM 40.0844 -93.6669 93° East 493 567 41,000  Level Kansas City Center
Fri 11:38:14 AM 40.0764 -93.4889 93° East 495 570 41,000  Level Kansas City Center
Fri 11:39:16 AM 40.0678 -93.3122 94° East 495 570 41,000  Level Kansas City Center
Fri 11:40:18 AM 40.0594 -93.1353 93° East 495 570 41,000  Level Kansas City Center
Fri 11:41:20 AM 40.0494 -92.9219 93° East 497 572 41,000  Level Kansas City Center
Fri 11:42:22 AM 40.0394 -92.7450 94° East 499 574 41,000  Level Kansas City Center
Fri 11:43:24 AM 40.0311 -92.5681 93° East 501 577 41,000  Level Kansas City Center
Fri 11:44:26 AM 40.0194 -92.3558 94° East 500 575 41,000  Level Kansas City Center
Fri 11:45:28 AM 40.0106 -92.1792 94° East 497 572 41,000  Level Kansas City Center
Fri 11:46:30 AM 39.9997 -92.0008 94° East 499 574 41,000  Level Kansas City Center
Fri 11:47:32 AM 39.9894 -91.8219 94° East 501 577 41,000  Level Kansas City Center
Fri 11:48:34 AM 39.9778 -91.6436 95° East 500 575 41,000  Level Kansas City Center
Fri 11:49:36 AM 39.9636 -91.4286 95° East 501 577 41,000  Level Kansas City Center
Fri 11:50:38 AM 39.9531 -91.2486 94° East 502 578 41,000  Level Kansas City Center
Fri 11:51:40 AM 39.9403 -91.0686 95° East 503 579 41,000  Level Kansas City Center
Fri 11:52:42 AM 39.9294 -90.8939 95° East 502 578 41,000  Level Kansas City Center
Fri 11:53:44 AM 39.9139 -90.6778 95° East 501 577 41,000  Level Kansas City Center
Fri 11:54:46 AM 39.9017 -90.4972 95° East 503 579 41,000  Level Kansas City Center
Fri 11:55:48 AM 39.8883 -90.3158 95° East 505 581 41,000  Level Kansas City Center
Fri 11:56:50 AM 39.8744 -90.1344 96° East 506 582 41,000  Level Kansas City Center
Fri 11:57:52 AM 39.8611 -89.9525 95° East 508 585 41,000  Level Kansas City Center
Fri 11:58:54 AM 39.8467 -89.7728 96° East 506 582 41,000  Level Kansas City Center
Fri 11:59:56 AM 39.8242 -89.5583 98° East 503 579 41,000  Level Kansas City Center
Fri 12:00:58 PM 39.7992 -89.3803 100° East 502 578 41,000  Level Kansas City Center
Fri 12:02:00 PM 39.7750 -89.2047 100° East 498 573 41,000  Level Kansas City Center
Fri 12:03:02 PM 39.7508 -89.0278 100° East 499 574 41,000  Level Kansas City Center
Fri 12:04:04 PM 39.7267 -88.8508 100° East 500 575 41,000  Level Kansas City Center
Fri 12:05:06 PM 39.6956 -88.6400 101° East 497 572 41,000  Level Kansas City Center
Fri 12:06:09 PM 39.6725 -88.4631 100° East 498 573 41,000  Level Kansas City Center
Fri 12:07:11 PM 39.6456 -88.2675 100° East 500 575 41,000  Level Kansas City Center
Fri 12:08:07 PM 39.6142 -88.1189 105° East 499 574 41,000  Level Indianapolis Center
Fri 12:09:09 PM 39.5722 -87.9472 108° East 500 575 41,000  Level Indianapolis Center
Fri 12:10:11 PM 39.5319 -87.7767 107° East 497 572 41,000  Level Indianapolis Center
Fri 12:11:13 PM 39.4908 -87.6064 107° East 499 574 41,000  Level Indianapolis Center
Fri 12:12:15 PM 39.4431 -87.4031 107° East 498 573 41,000  Level Indianapolis Center
Fri 12:13:17 PM 39.4014 -87.2358 108° East 493 567 41,000 -484 Level Indianapolis Center
Fri 12:14:19 PM 39.3614 -87.0678 107° East 494 568 40,000 -1,016 Descending Indianapolis Center
Fri 12:15:21 PM 39.3197 -86.8986 108° East 496 571 38,900 -1,258 Descending Indianapolis Center
Fri 12:17:25 PM 39.2236 -86.5094 108° East 532 612 36,100 -1,323 Descending Indianapolis Center
Fri 12:18:27 PM 39.1808 -86.3367 108° East 518 596 34,800 -1,258 Descending Indianapolis Center
Fri 12:19:29 PM 39.1372 -86.1642 108° East 513 590 33,500 -871 Descending Indianapolis Center
Fri 12:20:31 PM 39.0939 -85.9936 108° East 508 585 33,000 -242 Descending Indianapolis Center
Fri 12:21:33 PM 39.0494 -85.8208 108° East 512 589 33,000  Level Indianapolis Center
Fri 12:22:35 PM 38.9953 -85.6136 109° East 514 592 33,000 -339 Level Indianapolis Center
Fri 12:23:37 PM 38.9514 -85.4417 108° East 509 586 32,300 -1,500 Descending Indianapolis Center
Fri 12:24:39 PM 38.9103 -85.2822 108° East 480 552 29,900 -2,323 Descending Indianapolis Center
Fri 12:25:41 PM 38.8650 -85.1142 109° East 497 572 27,500 -2,323 Descending Indianapolis Center
Fri 12:26:43 PM 38.8225 -84.9542 109° East 479 551 25,100 -2,565 Descending Indianapolis Center
Fri 12:27:45 PM 38.7733 -84.7697 109° East 460 529 22,200 -2,371 Descending Indianapolis Center
Fri 12:28:47 PM 38.7356 -84.6231 108° East 437 503 20,200 -1,935 Descending Indianapolis Center
Fri 12:29:49 PM 38.6956 -84.4783 109° East 428 493 18,200 -1,790 Descending Indianapolis Center
Fri 12:30:51 PM 38.6581 -84.3403 109° East 411 473 16,500 -1,839 Descending Indianapolis Center
Fri 12:31:53 PM 38.6281 -84.1989 105° East 387 445 14,400 -1,887 Descending Indianapolis Center
Fri 12:32:55 PM 38.6044 -84.0717 103° East 370 426 12,600 -1,839 Descending Indianapolis Center
Fri 12:33:57 PM 38.5847 -83.9758 105° East 286 329 10,600 -1,872 Descending Indianapolis Center
Fri 12:35:00 PM 38.5478 -83.9275 134° Southeast 192 221 8,700 -1,810 Descending Indianapolis Center

Login

Don't have an account? Register now (free) for customized features, flight alerts, and more!